This is the latest recevied weather packets stored in our database for station/object WK7G. If no packets are shown the sender has not sent any weather packets the latest 1 day(s).
| Time | Temp. | Humidity | Pressure | Rain* | Wind** | Luminosity | Snow |
|---|---|---|---|---|---|---|---|
| 1778025575 | 11.11° C | 36% | 1003.3 hPa | 0 mm | 1.34 m/s, 313° | 278 W/m² | - |
| 1778025273 | 11.67° C | 32% | 1003.8 hPa | 0 mm | 4.02 m/s, 342° | 440 W/m² | - |
| 1778024969 | 11.67° C | 32% | 1003.6 hPa | 0 mm | 4.02 m/s, 318° | 446 W/m² | - |
| 1778024667 | 11.67° C | 34% | 1004 hPa | 0 mm | 3.58 m/s, 42° | 459 W/m² | - |
| 1778024363 | 11.67° C | 32% | 1003.8 hPa | 0 mm | 4.02 m/s, 297° | 450 W/m² | - |
| 1778024061 | 12.22° C | 33% | 1003.9 hPa | 0 mm | 3.58 m/s, 28° | 440 W/m² | - |
| 1778023758 | 11.67° C | 35% | 1003.7 hPa | 0 mm | 4.47 m/s, 108° | 446 W/m² | - |
| 1778023456 | 11.67° C | 33% | 1003.7 hPa | 0 mm | 4.92 m/s, 326° | 482 W/m² | - |
| 1778023153 | 12.22° C | 33% | 1003.6 hPa | 0 mm | 3.58 m/s, 288° | 519 W/m² | - |
| 1778022850 | 12.22° C | 33% | 1003.4 hPa | 0 mm | 3.13 m/s, 292° | 507 W/m² | - |
| 1778022548 | 12.22° C | 36% | 1003.4 hPa | 0 mm | 3.13 m/s, 27° | 523 W/m² | - |
| 1778022246 | 11.67° C | 32% | 1003.4 hPa | 0 mm | 3.13 m/s, 326° | 562 W/m² | - |
| 1778021942 | 11.67° C | 32% | 1003.4 hPa | 0 mm | 3.13 m/s, 6° | 521 W/m² | - |
| 1778021640 | 12.22° C | 33% | 1003.6 hPa | 0 mm | 4.47 m/s, 358° | 544 W/m² | - |
| 1778021340 | 12.22° C | 33% | 1003.4 hPa | 0 mm | 4.02 m/s, 3° | 512 W/m² | - |
| 1778021038 | 12.78° C | 32% | 1003.3 hPa | 0 mm | 4.92 m/s, 307° | 262 W/m² | - |
| 1778020734 | 12.22° C | 33% | 1003.7 hPa | 0 mm | 5.81 m/s, 334° | 571 W/m² | - |
| 1778020431 | 11.67° C | 32% | 1003.3 hPa | 0 mm | 4.02 m/s, 342° | 568 W/m² | - |
| 1778020127 | 11.67° C | 31% | 1003.6 hPa | 0 mm | 5.81 m/s, 321° | 568 W/m² | - |
| 1778019824 | 12.78° C | 30% | 1003.3 hPa | 0 mm | 6.26 m/s, 348° | 595 W/m² | - |
| 1778019521 | 12.78° C | 32% | 1003.3 hPa | 0 mm | 3.58 m/s, 2° | 595 W/m² | - |
| 1778019217 | 12.22° C | 29% | 1003.6 hPa | 0 mm | 6.26 m/s, 340° | 615 W/m² | - |
| 1778018915 | 12.78° C | 29% | 1003.7 hPa | 0 mm | 5.36 m/s, 359° | 599 W/m² | - |
| 1778018611 | 12.78° C | 30% | 1003.6 hPa | 0 mm | 4.02 m/s, 305° | 600 W/m² | - |
| 1778018309 | 12.78° C | 30% | 1003.8 hPa | 0 mm | 4.47 m/s, 337° | 615 W/m² | - |
* Rain latest hour (hover to see other rain measurements)
** Current wind speed in m/s (hover to see current wind gust speed)